Time;durP1;ratioP1;P1;durP2;ratioP2;P2;SDS_P1;SDS_P2;PMS_P1;PMS_P2;Temp;Humidity;BMP_temperature;BMP_pressure;BME280_temperature;BME280_humidity;BME280_pressure;Samples;Min_cycle;Max_cycle;Signal;HPM_P1;HPM_P2
2024/02/17 00:01:15;;;;;;;;;;;;;;;5.04;76.70;102367.98;107586;1254;113050;-63
2024/02/17 00:03:44;;;;;;;;;;;;;;;5.00;76.83;102365.11;107576;1253;108804;-62
2024/02/17 00:06:13;;;;;;;;;;;;;;;4.95;76.83;102366.92;107547;1251;107623;-62
2024/02/17 00:08:41;;;;;;;;;;;;;;;4.90;76.88;102364.23;107605;1250;99904;-62
2024/02/17 00:11:09;;;;;;;;;;;;;;;4.85;76.79;102363.36;107561;1250;99220;-62
2024/02/17 00:13:38;;;;;;;;;;;;;;;4.81;76.83;102364.77;107594;1250;112463;-64
2024/02/17 00:16:07;;;;;;;;;;;;;;;4.79;76.99;102361.66;107577;1250;108335;-64
2024/02/17 00:18:35;;;;;;;;;;;;;;;4.83;77.38;102364.00;107617;1251;106807;-63
2024/02/17 00:21:04;;;;;;;;;;;;;;;4.89;77.45;102365.90;107567;1251;99221;-63
2024/02/17 00:23:32;;;;;;;;;;;;;;;4.92;77.40;102368.08;107619;1251;99275;-64
2024/02/17 00:26:01;;;;;;;;;;;;;;;4.95;77.43;102361.22;107564;1251;112419;-63
2024/02/17 00:28:29;;;;;;;;;;;;;;;4.97;77.39;102360.23;107584;1253;108076;-64
2024/02/17 00:30:59;;;;;;;;;;;;;;;4.98;77.39;102363.21;107627;1251;107676;-63
2024/02/17 00:33:27;;;;;;;;;;;;;;;4.99;77.35;102368.49;107572;1251;99206;-63
2024/02/17 00:35:56;;;;;;;;;;;;;;;4.96;77.23;102366.66;107622;1251;99172;-64
2024/02/17 00:38:24;;;;;;;;;;;;;;;4.90;77.05;102361.77;107629;1251;113484;-63
2024/02/17 00:40:52;;;;;;;;;;;;;;;4.84;77.10;102363.06;107616;1251;108488;-63
2024/02/17 00:43:22;;;;;;;;;;;;;;;4.77;77.10;102362.08;107554;1251;108224;-64
2024/02/17 00:45:50;;;;;;;;;;;;;;;4.72;77.12;102361.93;107596;1250;100711;-64
2024/02/17 00:48:18;;;;;;;;;;;;;;;4.70;77.30;102358.79;107576;1251;99083;-63
2024/02/17 00:50:48;;;;;;;;;;;;;;;4.70;77.16;102355.96;107614;1253;112828;-66
2024/02/17 00:53:28;;;;;;;;;;;;;;;4.71;77.34;102349.67;107518;1254;108675;-65
2024/02/17 00:55:56;;;;;;;;;;;;;;;4.74;77.56;102352.44;107566;1254;107581;-66
2024/02/17 00:58:25;;;;;;;;;;;;;;;4.75;77.57;102351.16;107550;1254;99275;-63
2024/02/17 01:00:53;;;;;;;;;;;;;;;4.77;77.47;102347.84;107557;1252;99165;-63
2024/02/17 01:03:21;;;;;;;;;;;;;;;4.77;77.41;102347.87;107576;1254;112300;-62
2024/02/17 01:05:49;;;;;;;;;;;;;;;4.76;77.36;102347.17;107576;1254;107806;-62
2024/02/17 01:08:18;;;;;;;;;;;;;;;4.73;77.33;102344.12;107581;1254;108131;-63
2024/02/17 01:10:46;;;;;;;;;;;;;;;4.69;77.39;102341.21;107628;1251;99427;-62
2024/02/17 01:13:15;;;;;;;;;;;;;;;4.70;77.49;102338.00;107642;1251;99118;-63
2024/02/17 01:15:43;;;;;;;;;;;;;;;4.71;77.59;102338.50;107620;1250;113246;-62
2024/02/17 01:18:11;;;;;;;;;;;;;;;4.66;77.53;102335.65;107531;1253;107636;-63
2024/02/17 01:20:39;;;;;;;;;;;;;;;4.66;77.71;102335.13;107582;1251;107784;-63
2024/02/17 01:23:08;;;;;;;;;;;;;;;4.67;77.67;102334.71;107609;1251;99169;-64
2024/02/17 01:25:36;;;;;;;;;;;;;;;4.67;77.83;102333.31;107576;1251;99110;-63
2024/02/17 01:28:05;;;;;;;;;;;;;;;4.68;77.67;102338.05;107622;1255;112763;-63
2024/02/17 01:30:33;;;;;;;;;;;;;;;4.67;77.67;102335.96;107626;1251;108720;-63
2024/02/17 01:33:02;;;;;;;;;;;;;;;4.70;77.81;102334.42;107606;1250;108573;-63
2024/02/17 01:35:30;;;;;;;;;;;;;;;4.72;78.05;102337.73;107579;1251;99202;-61
2024/02/17 01:38:01;;;;;;;;;;;;;;;4.72;78.17;102335.08;107662;1251;99151;-63
2024/02/17 01:40:30;;;;;;;;;;;;;;;4.68;77.80;102335.04;107636;1251;114537;-63
2024/02/17 01:42:58;;;;;;;;;;;;;;;4.63;77.72;102336.84;107577;1254;108837;-63
2024/02/17 01:45:26;;;;;;;;;;;;;;;4.60;77.61;102336.95;107551;1254;108634;-64
2024/02/17 01:47:55;;;;;;;;;;;;;;;4.59;77.61;102333.08;107546;1254;99178;-62
2024/02/17 01:50:24;;;;;;;;;;;;;;;4.58;77.81;102332.93;107639;1255;99272;-65
2024/02/17 01:52:53;;;;;;;;;;;;;;;4.57;77.73;102330.52;107593;1250;112878;-63
2024/02/17 01:55:22;;;;;;;;;;;;;;;4.51;77.98;102331.61;107622;1251;108564;-64
2024/02/17 01:57:51;;;;;;;;;;;;;;;4.49;78.45;102327.25;107647;1251;108544;-63
2024/02/17 02:00:20;;;;;;;;;;;;;;;4.53;78.56;102325.87;107579;1251;99181;-64
2024/02/17 02:02:49;;;;;;;;;;;;;;;4.53;78.33;102324.78;107610;1254;99271;-63
2024/02/17 02:05:18;;;;;;;;;;;;;;;4.51;78.12;102323.27;107616;1254;113600;-64
2024/02/17 02:07:47;;;;;;;;;;;;;;;4.53;78.22;102325.50;107582;1253;108295;-64
2024/02/17 02:10:16;;;;;;;;;;;;;;;4.54;78.53;102324.39;107593;1252;107817;-63
2024/02/17 02:12:44;;;;;;;;;;;;;;;4.51;78.27;102323.07;107560;1251;99181;-63
2024/02/17 02:15:13;;;;;;;;;;;;;;;4.48;78.30;102324.95;107612;1251;99304;-64
2024/02/17 02:17:45;;;;;;;;;;;;;;;4.47;78.35;102328.21;107597;1251;112807;-63
2024/02/17 02:20:14;;;;;;;;;;;;;;;4.47;78.41;102335.67;107621;1256;108334;-63
2024/02/17 02:22:44;;;;;;;;;;;;;;;4.45;78.41;102332.73;107627;1251;110370;-63
2024/02/17 02:25:26;;;;;;;;;;;;;;;4.39;78.43;102333.33;107564;1251;99913;-63
2024/02/17 02:27:55;;;;;;;;;;;;;;;4.35;78.50;102331.16;107661;1251;99365;-65
2024/02/17 02:30:25;;;;;;;;;;;;;;;4.35;78.56;102329.34;107644;1251;112658;-64
2024/02/17 02:33:00;;;;;;;;;;;;;;;4.36;78.66;102328.60;107554;1251;107582;-62
2024/02/17 02:35:29;;;;;;;;;;;;;;;4.39;78.79;102331.19;107542;1254;108092;-62
2024/02/17 02:37:57;;;;;;;;;;;;;;;4.43;78.96;102333.00;107589;1253;99175;-62
2024/02/17 02:40:25;;;;;;;;;;;;;;;4.46;78.81;102331.28;107610;1255;99274;-62
2024/02/17 02:42:53;;;;;;;;;;;;;;;4.46;78.83;102334.10;107569;1253;113330;-61
2024/02/17 02:45:22;;;;;;;;;;;;;;;4.44;78.66;102336.48;107599;1254;108726;-62
2024/02/17 02:47:50;;;;;;;;;;;;;;;4.41;78.62;102333.22;107649;1251;108077;-62
2024/02/17 02:50:18;;;;;;;;;;;;;;;4.37;78.99;102333.72;107561;1251;99176;-63
2024/02/17 02:52:46;;;;;;;;;;;;;;;4.35;78.84;102334.01;107610;1251;99141;-61
2024/02/17 02:55:15;;;;;;;;;;;;;;;4.34;78.74;102336.34;107551;1251;112939;-63
2024/02/17 02:57:45;;;;;;;;;;;;;;;4.34;78.80;102333.33;107628;1251;108303;-64
2024/02/17 03:00:14;;;;;;;;;;;;;;;4.33;78.76;102329.44;107595;1251;108623;-63
2024/02/17 03:02:42;;;;;;;;;;;;;;;4.33;78.82;102335.83;107584;1254;99228;-62
2024/02/17 03:05:10;;;;;;;;;;;;;;;4.33;79.15;102336.18;107567;1252;99216;-64
2024/02/17 03:07:38;;;;;;;;;;;;;;;4.34;79.44;102337.39;107565;1253;113074;-64
2024/02/17 03:10:07;;;;;;;;;;;;;;;4.34;79.35;102336.31;107618;1254;107457;-65
2024/02/17 03:12:36;;;;;;;;;;;;;;;4.36;79.33;102334.14;107585;1254;109357;-63
2024/02/17 03:15:04;;;;;;;;;;;;;;;4.34;79.63;102330.46;107643;1251;99236;-63
2024/02/17 03:17:33;;;;;;;;;;;;;;;4.32;79.36;102327.89;107635;1253;99231;-63
2024/02/17 03:20:02;;;;;;;;;;;;;;;4.27;79.18;102328.60;107602;1251;112420;-63
2024/02/17 03:22:31;;;;;;;;;;;;;;;4.21;79.20;102329.16;107555;1253;107579;-63
2024/02/17 03:25:00;;;;;;;;;;;;;;;4.18;79.36;102329.64;107589;1256;107948;-63
2024/02/17 03:27:29;;;;;;;;;;;;;;;4.17;79.40;102332.88;107593;1251;99272;-63
2024/02/17 03:29:57;;;;;;;;;;;;;;;4.16;79.42;102334.50;107583;1251;99208;-62
2024/02/17 03:32:26;;;;;;;;;;;;;;;4.18;79.37;102337.98;107578;1251;111912;-62
2024/02/17 03:34:55;;;;;;;;;;;;;;;4.17;79.39;102336.95;107612;1251;108295;-63
2024/02/17 03:37:25;;;;;;;;;;;;;;;4.16;79.42;102340.02;107564;1251;107861;-63
2024/02/17 03:39:53;;;;;;;;;;;;;;;4.16;79.64;102344.45;107616;1251;99188;-63
2024/02/17 03:42:22;;;;;;;;;;;;;;;4.18;80.16;102339.04;107668;1251;99301;-62
2024/02/17 03:44:50;;;;;;;;;;;;;;;4.20;80.15;102340.55;107510;1251;112652;-63
2024/02/17 03:47:18;;;;;;;;;;;;;;;4.17;79.67;102342.98;107526;1254;108440;-64
2024/02/17 03:49:46;;;;;;;;;;;;;;;4.14;79.71;102347.19;107614;1255;106782;-64
2024/02/17 03:52:15;;;;;;;;;;;;;;;4.08;79.84;102345.27;107620;1251;99847;-65
2024/02/17 03:54:43;;;;;;;;;;;;;;;4.03;79.74;102343.30;107531;1256;99452;-67
2024/02/17 03:57:12;;;;;;;;;;;;;;;4.00;79.88;102339.66;107598;1251;113668;-62
2024/02/17 03:59:40;;;;;;;;;;;;;;;4.00;79.90;102334.02;107595;1251;108235;-63
2024/02/17 04:02:08;;;;;;;;;;;;;;;4.01;79.90;102336.11;107574;1254;108205;-62
2024/02/17 04:04:36;;;;;;;;;;;;;;;4.03;80.15;102336.74;107559;1252;99293;-62
2024/02/17 04:07:04;;;;;;;;;;;;;;;4.03;80.00;102333.04;107631;1254;99164;-62
2024/02/17 04:09:34;;;;;;;;;;;;;;;4.02;80.02;102333.41;107577;1254;113116;-64
2024/02/17 04:12:03;;;;;;;;;;;;;;;4.06;80.26;102336.09;107629;1254;107889;-64
2024/02/17 04:14:31;;;;;;;;;;;;;;;4.08;80.31;102335.30;107624;1251;107973;-63
2024/02/17 04:16:59;;;;;;;;;;;;;;;4.06;79.89;102329.89;107570;1251;99271;-63
2024/02/17 04:19:28;;;;;;;;;;;;;;;4.03;79.91;102323.07;107663;1251;99061;-63
2024/02/17 04:21:56;;;;;;;;;;;;;;;4.00;79.88;102323.17;107609;1251;113762;-63
2024/02/17 04:24:24;;;;;;;;;;;;;;;3.97;79.81;102324.72;107602;1251;108123;-62
2024/02/17 04:26:53;;;;;;;;;;;;;;;3.87;79.76;102325.95;107596;1251;107236;-63
2024/02/17 04:29:21;;;;;;;;;;;;;;;3.78;80.06;102336.36;107528;1251;99339;-62
2024/02/17 04:31:50;;;;;;;;;;;;;;;3.71;80.24;102339.80;107608;1251;99221;-63
2024/02/17 04:34:18;;;;;;;;;;;;;;;3.67;80.43;102347.58;107620;1256;113647;-62
2024/02/17 04:36:47;;;;;;;;;;;;;;;3.65;80.72;102347.98;107597;1251;107885;-63
2024/02/17 04:39:16;;;;;;;;;;;;;;;3.67;80.97;102350.07;107585;1256;108407;-63
2024/02/17 04:41:44;;;;;;;;;;;;;;;3.70;81.39;102346.08;107619;1251;99272;-63
2024/02/17 04:44:12;;;;;;;;;;;;;;;3.72;81.10;102348.30;107584;1254;99266;-64
2024/02/17 04:46:40;;;;;;;;;;;;;;;3.73;80.95;102342.95;107617;1254;112198;-64
2024/02/17 04:49:09;;;;;;;;;;;;;;;3.68;80.66;102342.58;107643;1251;108888;-65
2024/02/17 04:51:38;;;;;;;;;;;;;;;3.65;80.69;102341.41;107633;1256;108192;-63
2024/02/17 04:54:06;;;;;;;;;;;;;;;3.63;80.79;102339.58;107610;1251;99182;-63
2024/02/17 04:56:35;;;;;;;;;;;;;;;3.57;80.81;102334.08;107632;1251;99160;-63
2024/02/17 04:59:03;;;;;;;;;;;;;;;3.51;80.97;102329.49;107568;1254;112692;-62
2024/02/17 05:01:31;;;;;;;;;;;;;;;3.48;81.02;102327.83;107525;1254;107776;-63
2024/02/17 05:03:59;;;;;;;;;;;;;;;3.44;81.42;102332.38;107617;1251;107413;-63
2024/02/17 05:06:28;;;;;;;;;;;;;;;3.45;81.55;102328.27;107624;1251;99096;-63
2024/02/17 05:08:56;;;;;;;;;;;;;;;3.48;81.73;102333.50;107662;1251;99165;-63
2024/02/17 05:11:24;;;;;;;;;;;;;;;3.51;81.43;102330.38;107625;1251;112546;-63
2024/02/17 05:13:52;;;;;;;;;;;;;;;3.50;81.71;102330.77;107609;1254;107514;-64
2024/02/17 05:16:21;;;;;;;;;;;;;;;3.47;81.55;102331.06;107580;1253;107204;-62
2024/02/17 05:18:49;;;;;;;;;;;;;;;3.42;81.63;102334.05;107584;1254;99709;-63
2024/02/17 05:21:18;;;;;;;;;;;;;;;3.37;81.76;102337.77;107551;1255;99281;-64
2024/02/17 05:23:47;;;;;;;;;;;;;;;3.35;81.72;102337.83;107557;1255;113318;-64
2024/02/17 05:26:15;;;;;;;;;;;;;;;3.32;81.71;102343.59;107520;1254;108363;-64
2024/02/17 05:28:44;;;;;;;;;;;;;;;3.29;81.91;102347.59;107627;1254;108620;-63
2024/02/17 05:31:26;;;;;;;;;;;;;;;3.26;81.94;102342.36;107579;1254;99182;-64
2024/02/17 05:33:55;;;;;;;;;;;;;;;3.27;82.35;102343.91;107558;1254;99188;-63
2024/02/17 05:36:24;;;;;;;;;;;;;;;3.28;82.31;102342.66;107529;1253;113513;-64
2024/02/17 05:38:53;;;;;;;;;;;;;;;3.31;82.51;102344.69;107566;1255;108325;-63
2024/02/17 05:41:22;;;;;;;;;;;;;;;3.36;82.58;102348.23;107516;1254;107758;-63
2024/02/17 05:43:51;;;;;;;;;;;;;;;3.41;82.82;102350.04;107586;1254;99296;-63
2024/02/17 05:46:19;;;;;;;;;;;;;;;3.44;82.71;102351.19;107566;1254;99024;-63
2024/02/17 05:48:47;;;;;;;;;;;;;;;3.47;82.57;102349.11;107578;1255;112395;-63
2024/02/17 05:51:16;;;;;;;;;;;;;;;3.47;82.49;102355.35;107637;1252;108602;-63
2024/02/17 05:53:45;;;;;;;;;;;;;;;3.40;82.31;102360.18;107623;1251;108296;-62
2024/02/17 05:56:13;;;;;;;;;;;;;;;3.35;82.28;102364.08;107549;1254;99184;-63
2024/02/17 05:58:41;;;;;;;;;;;;;;;3.32;82.37;102371.96;107615;1253;99131;-63
2024/02/17 06:01:10;;;;;;;;;;;;;;;3.33;82.37;102373.39;107627;1253;113538;-62
2024/02/17 06:03:38;;;;;;;;;;;;;;;3.30;82.38;102371.86;107565;1251;108516;-62
2024/02/17 06:06:07;;;;;;;;;;;;;;;3.28;82.40;102370.30;107550;1251;108808;-63
2024/02/17 06:08:35;;;;;;;;;;;;;;;3.28;82.76;102369.79;107589;1251;100419;-63
2024/02/17 06:11:03;;;;;;;;;;;;;;;3.30;82.86;102371.52;107589;1254;99189;-63
2024/02/17 06:13:31;;;;;;;;;;;;;;;3.33;82.65;102377.63;107617;1251;113213;-64
2024/02/17 06:16:01;;;;;;;;;;;;;;;3.37;82.96;102378.55;107598;1253;108905;-62
2024/02/17 06:21:21;;;;;;;;;;;;;;;3.32;82.63;102384.75;107554;1255;99171;-62
2024/02/17 06:23:51;;;;;;;;;;;;;;;3.28;82.59;102383.09;107588;1254;99052;-63
2024/02/17 06:26:22;;;;;;;;;;;;;;;3.26;82.62;102384.04;107583;1251;113728;-61
2024/02/17 06:28:51;;;;;;;;;;;;;;;3.25;82.64;102380.01;107588;1257;107416;-62
2024/02/17 06:31:20;;;;;;;;;;;;;;;3.23;82.58;102375.98;107524;1256;108173;-62
2024/02/17 06:33:48;;;;;;;;;;;;;;;3.23;82.87;102376.33;107612;1251;99277;-64
2024/02/17 06:36:18;;;;;;;;;;;;;;;3.26;82.88;102382.98;107564;1254;99233;-64
2024/02/17 06:38:50;;;;;;;;;;;;;;;3.35;83.39;102384.65;107574;1254;113209;-63
2024/02/17 06:41:19;;;;;;;;;;;;;;;3.44;83.03;102386.84;107533;1253;108315;-64
2024/02/17 06:43:48;;;;;;;;;;;;;;;3.53;83.14;102387.27;107568;1254;108182;-63
2024/02/17 06:46:16;;;;;;;;;;;;;;;3.60;83.01;102388.98;107519;1254;99175;-62
2024/02/17 06:48:49;;;;;;;;;;;;;;;3.60;82.64;102388.63;107616;1254;99266;-63
2024/02/17 06:51:20;;;;;;;;;;;;;;;3.58;82.41;102390.81;107526;1254;113472;-62
2024/02/17 06:53:49;;;;;;;;;;;;;;;3.54;82.34;102390.08;107591;1254;106724;-60
2024/02/17 06:56:17;;;;;;;;;;;;;;;3.49;82.22;102389.18;107562;1254;107517;-62
2024/02/17 06:58:45;;;;;;;;;;;;;;;3.45;82.17;102386.27;107597;1254;99223;-63
2024/02/17 07:01:14;;;;;;;;;;;;;;;3.42;82.25;102387.78;107560;1256;99311;-63
2024/02/17 07:03:42;;;;;;;;;;;;;;;3.40;82.37;102387.30;107568;1254;115366;-63
2024/02/17 07:06:16;;;;;;;;;;;;;;;3.42;82.53;102390.80;107596;1255;108804;-64
2024/02/17 07:08:48;;;;;;;;;;;;;;;3.52;82.72;102393.15;107603;1257;108566;-63
2024/02/17 07:11:17;;;;;;;;;;;;;;;3.61;82.64;102389.84;107552;1256;99106;-64
2024/02/17 07:13:45;;;;;;;;;;;;;;;3.62;82.22;102394.59;107587;1254;99183;-64
2024/02/17 07:16:14;;;;;;;;;;;;;;;3.67;82.10;102397.09;107313;1254;113199;-62
2024/02/17 07:18:43;;;;;;;;;;;;;;;3.67;81.56;102398.16;107540;1254;109094;-64
2024/02/17 07:21:12;;;;;;;;;;;;;;;3.63;81.58;102396.34;107525;1255;107668;-61
2024/02/17 07:23:41;;;;;;;;;;;;;;;3.57;81.27;102396.02;107515;1254;99217;-63
2024/02/17 07:26:09;;;;;;;;;;;;;;;3.51;81.23;102399.77;107579;1254;99243;-63
2024/02/17 07:28:38;;;;;;;;;;;;;;;3.47;81.23;102400.05;107555;1257;113040;-63
2024/02/17 07:31:06;;;;;;;;;;;;;;;3.45;81.16;102401.87;107442;1255;107043;-63
2024/02/17 07:33:35;;;;;;;;;;;;;;;3.45;81.26;102397.98;107598;1256;107452;-63
2024/02/17 07:36:04;;;;;;;;;;;;;;;3.43;81.55;102398.39;107541;1254;99073;-64
2024/02/17 07:38:32;;;;;;;;;;;;;;;3.48;81.65;102399.48;107565;1251;99853;-62
2024/02/17 07:41:01;;;;;;;;;;;;;;;3.55;81.73;102397.13;107532;1254;112104;-63
2024/02/17 07:43:29;;;;;;;;;;;;;;;3.60;81.43;102394.11;107512;1251;108395;-62
2024/02/17 07:45:57;;;;;;;;;;;;;;;3.64;80.96;102395.05;107530;1256;108573;-61
2024/02/17 07:48:26;;;;;;;;;;;;;;;3.65;80.85;102398.20;107571;1251;99028;-63
2024/02/17 07:50:57;;;;;;;;;;;;;;;3.66;80.69;102389.83;107606;1251;99233;-64
2024/02/17 07:53:27;;;;;;;;;;;;;;;3.58;80.57;102390.98;107533;1254;113085;-63
2024/02/17 07:55:55;;;;;;;;;;;;;;;3.55;80.49;102391.29;107605;1256;107874;-63
2024/02/17 07:58:23;;;;;;;;;;;;;;;3.58;80.69;102394.19;107596;1251;108557;-63
2024/02/17 08:00:51;;;;;;;;;;;;;;;3.62;80.63;102392.09;107580;1251;99167;-64
2024/02/17 08:03:20;;;;;;;;;;;;;;;3.64;80.41;102393.13;107578;1252;99233;-62
2024/02/17 08:05:48;;;;;;;;;;;;;;;3.62;80.53;102393.87;107575;1256;113134;-63
2024/02/17 08:08:17;;;;;;;;;;;;;;;3.69;80.88;102389.92;107560;1251;108383;-63
2024/02/17 08:10:45;;;;;;;;;;;;;;;3.82;81.09;102393.92;107591;1254;106406;-63
2024/02/17 08:13:14;;;;;;;;;;;;;;;3.90;80.61;102393.45;107616;1256;99456;-62
2024/02/17 08:15:42;;;;;;;;;;;;;;;3.99;80.52;102395.30;107624;1251;99212;-62
2024/02/17 08:18:10;;;;;;;;;;;;;;;4.06;80.38;102398.40;107591;1252;115685;-63
2024/02/17 08:20:39;;;;;;;;;;;;;;;4.10;79.87;102398.29;107620;1251;108567;-62
2024/02/17 08:23:07;;;;;;;;;;;;;;;4.15;79.80;102393.52;107568;1251;107951;-62
2024/02/17 08:25:36;;;;;;;;;;;;;;;4.20;79.73;102390.64;107518;1254;99287;-61
2024/02/17 08:28:04;;;;;;;;;;;;;;;4.25;79.81;102390.30;107492;1251;99252;-63
2024/02/17 08:30:32;;;;;;;;;;;;;;;4.31;79.69;102390.09;107535;1256;113528;-62
2024/02/17 08:33:00;;;;;;;;;;;;;;;4.31;79.10;102387.24;107509;1251;109067;-62
2024/02/17 08:35:28;;;;;;;;;;;;;;;4.29;79.04;102389.27;107497;1251;107526;-63
2024/02/17 08:37:57;;;;;;;;;;;;;;;4.33;79.09;102391.25;107500;1251;99182;-64
2024/02/17 08:40:25;;;;;;;;;;;;;;;4.37;78.84;102391.10;107633;1251;99180;-62
2024/02/17 08:42:53;;;;;;;;;;;;;;;4.44;78.84;102393.52;107474;1251;113454;-64
2024/02/17 08:45:22;;;;;;;;;;;;;;;4.53;78.86;102391.42;107403;1251;273341;-64
2024/02/17 08:47:50;;;;;;;;;;;;;;;4.60;78.24;102392.77;107465;1251;108175;-63
2024/02/17 08:50:20;;;;;;;;;;;;;;;4.65;77.69;102396.48;107445;1251;99336;-63
2024/02/17 08:52:49;;;;;;;;;;;;;;;4.67;77.57;102397.27;107534;1254;99184;-63
2024/02/17 08:55:17;;;;;;;;;;;;;;;4.73;77.70;102398.15;107438;1256;113053;-65
2024/02/17 08:57:45;;;;;;;;;;;;;;;4.79;77.68;102402.70;107466;1251;108366;-64
2024/02/17 09:00:14;;;;;;;;;;;;;;;4.81;77.32;102402.09;107444;1256;107681;-64
2024/02/17 09:02:44;;;;;;;;;;;;;;;4.80;76.85;102404.98;107543;1255;99071;-62
2024/02/17 09:05:13;;;;;;;;;;;;;;;4.76;76.72;102406.05;107512;1254;99073;-62
2024/02/17 09:07:42;;;;;;;;;;;;;;;4.78;76.74;102408.27;107495;1251;112612;-63
2024/02/17 09:10:15;;;;;;;;;;;;;;;4.81;76.32;102405.11;107489;1251;107899;-64
2024/02/17 09:12:44;;;;;;;;;;;;;;;4.84;76.23;102405.70;107479;1255;108656;-63
2024/02/17 09:15:12;;;;;;;;;;;;;;;4.91;75.97;102399.96;107475;1251;99301;-63
2024/02/17 09:17:41;;;;;;;;;;;;;;;4.96;76.11;102401.34;107590;1251;99210;-62
2024/02/17 09:20:11;;;;;;;;;;;;;;;5.01;75.46;102399.75;107515;1251;113283;-63
2024/02/17 09:22:39;;;;;;;;;;;;;;;5.03;74.80;102398.27;107474;1251;108257;-63
2024/02/17 09:25:07;;;;;;;;;;;;;;;5.04;75.09;102397.32;107462;1254;107685;-63
2024/02/17 09:27:35;;;;;;;;;;;;;;;5.04;74.89;102395.00;107514;1251;99205;-63
2024/02/17 09:30:04;;;;;;;;;;;;;;;4.96;74.27;102392.98;107536;1254;99055;-64
2024/02/17 09:32:32;;;;;;;;;;;;;;;4.89;74.47;102399.14;107526;1250;112617;-63
2024/02/17 09:35:00;;;;;;;;;;;;;;;4.81;74.36;102391.96;107472;1254;108438;-62
2024/02/17 09:37:29;;;;;;;;;;;;;;;4.71;74.54;102390.56;107440;1254;107914;-64
2024/02/17 09:39:58;;;;;;;;;;;;;;;4.72;75.03;102390.36;107455;1250;99204;-62
2024/02/17 09:42:29;;;;;;;;;;;;;;;4.82;75.12;102381.98;107465;1251;99188;-64
2024/02/17 09:44:59;;;;;;;;;;;;;;;4.87;74.81;102384.27;107535;1251;113416;-63
2024/02/17 09:47:31;;;;;;;;;;;;;;;4.93;75.12;102386.36;107539;1252;108657;-63
2024/02/17 09:49:59;;;;;;;;;;;;;;;5.03;75.38;102385.96;107446;1251;108684;-62
2024/02/17 09:52:28;;;;;;;;;;;;;;;5.09;74.89;102382.71;107403;1251;99198;-63
2024/02/17 09:54:57;;;;;;;;;;;;;;;5.01;74.06;102380.73;107502;1251;99301;-65
2024/02/17 09:57:25;;;;;;;;;;;;;;;4.95;74.28;102376.31;107496;1251;113210;-65
2024/02/17 10:00:14;;;;;;;;;;;;;;;4.89;74.13;102370.31;107439;1254;108439;-63
2024/02/17 10:02:42;;;;;;;;;;;;;;;4.89;74.05;102363.92;107462;1251;107790;-63
2024/02/17 10:05:11;;;;;;;;;;;;;;;4.87;74.01;102361.33;107497;1251;99265;-64
2024/02/17 10:07:49;;;;;;;;;;;;;;;4.81;73.96;102358.54;107513;1251;99090;-63
2024/02/17 10:10:18;;;;;;;;;;;;;;;4.77;74.17;102358.89;107473;1251;112957;-63
2024/02/17 10:12:51;;;;;;;;;;;;;;;4.84;74.61;102354.02;107499;1251;108448;-63
2024/02/17 10:15:21;;;;;;;;;;;;;;;4.96;74.71;102354.06;107477;1251;108522;-62
2024/02/17 10:17:50;;;;;;;;;;;;;;;5.05;74.57;102352.47;107529;1251;99192;-62
2024/02/17 10:20:19;;;;;;;;;;;;;;;5.10;74.61;102354.20;107520;1254;99297;-63
2024/02/17 10:22:47;;;;;;;;;;;;;;;5.21;74.45;102349.88;107519;1251;113698;-63
2024/02/17 10:25:15;;;;;;;;;;;;;;;5.26;74.29;102343.98;107543;1254;108598;-63
2024/02/17 10:27:45;;;;;;;;;;;;;;;5.24;73.81;102342.45;107482;1251;107358;-63
2024/02/17 10:30:17;;;;;;;;;;;;;;;5.19;73.55;102335.54;107525;1250;99279;-64
2024/02/17 10:32:45;;;;;;;;;;;;;;;5.09;73.41;102331.67;107512;1254;99064;-63
2024/02/17 10:35:15;;;;;;;;;;;;;;;5.06;73.37;102330.58;107465;1254;112944;-63
2024/02/17 10:37:47;;;;;;;;;;;;;;;4.98;73.47;102329.06;107510;1250;109085;-64
2024/02/17 10:40:16;;;;;;;;;;;;;;;4.99;73.76;102328.13;107409;1251;108291;-64
2024/02/17 10:42:46;;;;;;;;;;;;;;;5.05;74.03;102324.36;107428;1251;99083;-64
2024/02/17 10:45:14;;;;;;;;;;;;;;;5.19;74.23;102321.15;107391;1251;99393;-63
2024/02/17 10:47:44;;;;;;;;;;;;;;;5.24;73.64;102316.64;107413;1250;113832;-63
2024/02/17 10:50:14;;;;;;;;;;;;;;;5.27;73.63;102319.20;107425;1254;107596;-63
2024/02/17 10:52:50;;;;;;;;;;;;;;;5.35;73.64;102316.73;107402;1251;108279;-61
2024/02/17 10:55:23;;;;;;;;;;;;;;;5.41;73.52;102313.48;107412;1251;99942;-63
2024/02/17 10:57:55;;;;;;;;;;;;;;;5.49;73.61;102313.31;107493;1251;99196;-63
2024/02/17 11:00:24;;;;;;;;;;;;;;;5.52;73.45;102311.94;107384;1251;111776;-63
2024/02/17 11:03:03;;;;;;;;;;;;;;;5.50;72.92;102307.59;107490;1250;108717;-63
2024/02/17 11:05:32;;;;;;;;;;;;;;;5.47;72.79;102307.72;107447;1254;107262;-62
2024/02/17 11:08:02;;;;;;;;;;;;;;;5.39;72.64;102306.28;107414;1251;99278;-62
2024/02/17 11:10:31;;;;;;;;;;;;;;;5.36;72.97;102301.92;107403;1251;99338;-65
2024/02/17 11:13:03;;;;;;;;;;;;;;;5.43;73.30;102302.34;107391;1254;113495;-62
2024/02/17 11:15:31;;;;;;;;;;;;;;;5.52;73.22;102302.50;107543;1253;108508;-62
2024/02/17 11:18:04;;;;;;;;;;;;;;;5.58;72.83;102303.66;107470;1255;108131;-64
2024/02/17 11:20:33;;;;;;;;;;;;;;;5.60;72.55;102300.04;107487;1251;99071;-63
2024/02/17 11:23:01;;;;;;;;;;;;;;;5.56;72.39;102300.76;107365;1251;99130;-64
2024/02/17 11:25:30;;;;;;;;;;;;;;;5.45;72.18;102301.89;107427;1251;113075;-65
2024/02/17 11:27:58;;;;;;;;;;;;;;;5.36;72.36;102297.65;107427;1251;107665;-65
2024/02/17 11:30:27;;;;;;;;;;;;;;;5.32;72.50;102298.71;107371;1254;107132;-64
2024/02/17 11:32:56;;;;;;;;;;;;;;;5.31;72.63;102298.20;107472;1251;99269;-64
2024/02/17 11:35:26;;;;;;;;;;;;;;;5.35;72.77;102296.82;107490;1250;99148;-63
2024/02/17 11:37:56;;;;;;;;;;;;;;;5.31;72.59;102291.64;107380;1254;113132;-63
2024/02/17 11:40:27;;;;;;;;;;;;;;;5.23;72.77;102288.59;107482;1251;108284;-62
2024/02/17 11:42:56;;;;;;;;;;;;;;;5.21;72.90;102292.95;107464;1256;107722;-63
2024/02/17 11:45:25;;;;;;;;;;;;;;;5.23;72.91;102292.52;107537;1253;99110;-63
2024/02/17 11:47:57;;;;;;;;;;;;;;;5.22;72.92;102292.55;107553;1251;99218;-64
2024/02/17 11:50:25;;;;;;;;;;;;;;;5.18;72.90;102288.26;107373;1251;112763;-64
2024/02/17 11:52:54;;;;;;;;;;;;;;;5.11;72.80;102285.69;107421;1254;107903;-62
2024/02/17 11:55:22;;;;;;;;;;;;;;;5.12;73.02;102287.45;107443;1251;106911;-63
2024/02/17 11:57:55;;;;;;;;;;;;;;;5.08;72.74;102287.07;107372;1254;99192;-63
2024/02/17 12:00:24;;;;;;;;;;;;;;;4.98;72.59;102288.71;107614;1254;99277;-63
2024/02/17 12:02:54;;;;;;;;;;;;;;;4.98;73.10;102285.14;107560;1251;113488;-62
2024/02/17 12:05:22;;;;;;;;;;;;;;;4.98;73.08;102277.33;107403;1251;107128;-63
2024/02/17 12:07:51;;;;;;;;;;;;;;;4.94;73.12;102278.40;107442;1251;108532;-62
2024/02/17 12:10:19;;;;;;;;;;;;;;;4.93;73.18;102276.14;107446;1251;99083;-63
2024/02/17 12:12:47;;;;;;;;;;;;;;;4.94;73.08;102276.11;107502;1251;99192;-63
2024/02/17 12:15:16;;;;;;;;;;;;;;;4.95;73.45;102273.21;107464;1251;113818;-64
2024/02/17 12:17:44;;;;;;;;;;;;;;;5.00;73.44;102275.48;107426;1251;108304;-63
2024/02/17 12:20:15;;;;;;;;;;;;;;;5.01;73.55;102269.95;107418;1254;107335;-64
2024/02/17 12:22:45;;;;;;;;;;;;;;;5.00;73.38;102266.23;107410;1251;99160;-64
2024/02/17 12:25:16;;;;;;;;;;;;;;;4.97;73.37;102267.25;107509;1254;99086;-63
2024/02/17 12:27:47;;;;;;;;;;;;;;;4.96;73.39;102262.14;107487;1254;112703;-66
2024/02/17 12:30:17;;;;;;;;;;;;;;;4.93;73.47;102261.21;107432;1251;107340;-68
2024/02/17 12:32:46;;;;;;;;;;;;;;;4.92;73.46;102261.58;107441;1251;107213;-64
2024/02/17 12:35:20;;;;;;;;;;;;;;;4.86;73.56;102262.00;107537;1251;99313;-63
2024/02/17 12:37:49;;;;;;;;;;;;;;;4.90;73.72;102260.27;107494;1254;99099;-63
2024/02/17 12:40:18;;;;;;;;;;;;;;;4.94;73.83;102259.36;107467;1253;112111;-62
2024/02/17 12:42:53;;;;;;;;;;;;;;;5.04;73.80;102250.43;107494;1256;107275;-62